Time;durP1;ratioP1;P1;durP2;ratioP2;P2;SDS_P1;SDS_P2;PMS_P1;PMS_P2;Temp;Humidity;BMP_temperature;BMP_pressure;BME280_temperature;BME280_humidity;BME280_pressure;Samples;Min_cycle;Max_cycle;Signal;HPM_P1;HPM_P2
2022/04/11 00:00:06;;;;;;;10.95;6.75;;;;;;;17.76;45.05;102081.19;5044622;28;20131;-40
2022/04/11 00:02:32;;;;;;;13.38;7.35;;;;;;;17.75;45.60;102068.78;5042225;28;20044;-39
2022/04/11 00:04:59;;;;;;;11.00;6.53;;;;;;;17.74;45.46;102071.56;5044813;28;20135;-39
2022/04/11 00:07:26;;;;;;;9.98;6.22;;;;;;;17.72;45.15;102071.66;5045448;28;20060;-40
2022/04/11 00:09:53;;;;;;;11.85;6.63;;;;;;;17.72;45.15;102068.13;5045446;28;20056;-39
2022/04/11 00:12:19;;;;;;;11.02;5.97;;;;;;;17.71;45.28;102061.91;5044801;28;20047;-39
2022/04/11 00:14:46;;;;;;;10.23;6.00;;;;;;;17.69;45.24;102063.88;5044128;28;20395;-39
2022/04/11 00:17:13;;;;;;;9.52;5.95;;;;;;;17.69;45.45;102057.66;5025230;28;20044;-39
2022/04/11 00:19:39;;;;;;;11.48;6.20;;;;;;;17.68;45.35;102045.22;5029859;28;20140;-39
2022/04/11 00:22:06;;;;;;;10.43;6.30;;;;;;;17.66;45.49;102053.41;5028748;28;20076;-39
2022/04/11 00:24:32;;;;;;;9.27;5.93;;;;;;;17.66;45.41;102053.41;5024826;28;20157;-39
2022/04/11 00:26:59;;;;;;;9.45;5.53;;;;;;;17.64;45.34;102057.16;5027359;28;20076;-39
2022/04/11 00:29:25;;;;;;;9.90;5.50;;;;;;;17.64;45.59;102047.28;5021691;28;20056;-39
2022/04/11 00:31:52;;;;;;;9.80;4.75;;;;;;;17.62;45.60;102046.56;5024811;28;20351;-39
2022/04/11 00:34:18;;;;;;;11.38;6.45;;;;;;;17.59;45.56;102046.81;5025849;28;20050;-39
2022/04/11 00:36:45;;;;;;;10.20;5.13;;;;;;;17.58;45.53;102050.47;5024534;28;20057;-39
2022/04/11 00:39:11;;;;;;;8.80;5.43;;;;;;;17.59;45.46;102037.91;5027270;28;21904;-39
2022/04/11 00:41:38;;;;;;;10.10;5.95;;;;;;;17.57;45.70;102039.84;5025226;28;20056;-39
2022/04/11 00:44:05;;;;;;;9.32;5.43;;;;;;;17.56;45.80;102033.63;5025910;28;20443;-40
2022/04/11 00:46:32;;;;;;;9.63;5.07;;;;;;;17.54;45.35;102037.44;5027782;28;20136;-39
2022/04/11 00:48:59;;;;;;;8.98;5.40;;;;;;;17.54;45.46;102035.59;5028446;28;20049;-39
2022/04/11 00:51:26;;;;;;;8.52;4.78;;;;;;;17.54;45.60;102032.91;5028453;28;20113;-39
2022/04/11 00:53:56;;;;;;;8.30;5.10;;;;;;;17.52;46.03;102030.34;5026185;28;20041;-40
2022/04/11 00:56:26;;;;;;;9.48;5.40;;;;;;;17.51;45.34;102028.63;5027877;28;20415;-39
2022/04/11 00:58:52;;;;;;;9.45;4.88;;;;;;;17.49;45.33;102033.28;5026603;28;20497;-40
2022/04/11 01:01:19;;;;;;;7.57;4.68;;;;;;;17.49;45.49;102033.28;5026093;28;20068;-39
2022/04/11 01:03:46;;;;;;;7.88;4.47;;;;;;;17.47;45.55;102029.84;5028337;28;20104;-39
2022/04/11 01:06:12;;;;;;;10.00;4.30;;;;;;;17.48;45.79;102022.66;5030500;28;20332;-39
2022/04/11 01:08:39;;;;;;;7.95;4.15;;;;;;;17.46;45.57;102025.47;5032407;28;20409;-39
2022/04/11 01:11:07;;;;;;;7.30;4.20;;;;;;;17.43;45.63;102028.41;5029024;28;20054;-39
2022/04/11 01:13:33;;;;;;;7.40;4.03;;;;;;;17.43;45.67;102025.72;5029690;28;20058;-39
2022/04/11 01:16:03;;;;;;;8.57;3.85;;;;;;;17.43;45.61;102032.91;5038508;28;20060;-39
2022/04/11 01:18:37;;;;;;;8.90;4.32;;;;;;;17.41;45.94;102034.88;5048470;28;20055;-39
2022/04/11 01:21:06;;;;;;;6.63;3.75;;;;;;;17.40;45.51;102027.78;5046616;28;20131;-39
2022/04/11 01:23:33;;;;;;;6.25;3.63;;;;;;;17.39;46.21;102028.75;5047142;28;20116;-39
2022/04/11 01:25:59;;;;;;;7.53;4.28;;;;;;;17.40;45.82;102025.09;5045337;28;20053;-39
2022/04/11 01:28:27;;;;;;;6.60;4.05;;;;;;;17.38;45.99;102025.22;5048654;28;20051;-39
2022/04/11 01:30:55;;;;;;;7.70;4.15;;;;;;;17.38;46.01;102022.56;5045808;28;20144;-39
2022/04/11 01:33:28;;;;;;;7.18;3.80;;;;;;;17.37;46.05;102018.19;5048536;28;20041;-39
2022/04/11 01:35:54;;;;;;;7.20;3.90;;;;;;;17.35;45.88;102012.06;5048865;28;20053;-40
2022/04/11 01:38:21;;;;;;;5.88;3.33;;;;;;;17.36;45.40;102023.63;5048713;28;20037;-40
2022/04/11 01:40:52;;;;;;;6.13;3.67;;;;;;;17.33;45.30;102022.06;5049146;28;20041;-39
2022/04/11 01:43:20;;;;;;;5.35;3.45;;;;;;;17.32;45.62;102012.28;5045132;28;20044;-39
2022/04/11 01:45:47;;;;;;;6.38;3.78;;;;;;;17.31;46.02;102015.97;5047739;28;20057;-40
2022/04/11 01:48:14;;;;;;;5.47;3.58;;;;;;;17.31;45.58;102017.78;5048423;28;20095;-39
2022/04/11 01:50:40;;;;;;;6.55;3.83;;;;;;;17.29;45.66;102009.88;5047515;28;20059;-39
2022/04/11 01:53:12;;;;;;;6.88;3.60;;;;;;;17.29;45.55;102012.56;5049291;28;20420;-39
2022/04/11 01:55:39;;;;;;;4.93;2.75;;;;;;;17.27;46.02;102009.13;5048371;28;20056;-39
2022/04/11 01:58:07;;;;;;;6.50;2.90;;;;;;;17.25;45.80;102011.09;5043498;28;20059;-39
2022/04/11 02:00:35;;;;;;;5.07;2.75;;;;;;;17.23;45.73;102013.88;5046497;28;20420;-39
2022/04/11 02:03:06;;;;;;;4.55;2.92;;;;;;;17.23;45.88;102008.53;5043733;28;20070;-39
2022/04/11 02:05:34;;;;;;;6.45;3.00;;;;;;;17.23;45.60;102005.00;5046431;28;20056;-39
2022/04/11 02:08:00;;;;;;;4.32;2.95;;;;;;;17.21;46.24;102005.13;5044155;28;20048;-39
2022/04/11 02:10:27;;;;;;;4.63;3.13;;;;;;;17.21;45.79;102009.63;5049242;28;20067;-39
2022/04/11 02:12:55;;;;;;;6.03;3.03;;;;;;;17.19;45.96;102004.38;5044182;28;20060;-39
2022/04/11 02:15:22;;;;;;;5.93;3.10;;;;;;;17.18;46.01;102004.50;5046852;28;20040;-39
2022/04/11 02:17:50;;;;;;;5.63;2.70;;;;;;;17.17;46.40;101997.44;5045585;28;20071;-39
2022/04/11 02:20:17;;;;;;;4.82;2.88;;;;;;;17.17;45.90;102000.97;5047643;28;20041;-39
2022/04/11 02:22:51;;;;;;;4.05;2.70;;;;;;;17.15;46.21;102002.06;5047546;28;20059;-39
2022/04/11 02:25:20;;;;;;;4.90;2.97;;;;;;;17.13;46.25;102001.34;5047073;28;20041;-40
2022/04/11 02:27:48;;;;;;;6.93;3.15;;;;;;;17.12;45.95;102016.53;5047274;28;20146;-39
2022/04/11 02:30:16;;;;;;;5.53;2.97;;;;;;;17.12;45.62;102004.97;5046173;28;20411;-39
2022/04/11 02:32:45;;;;;;;4.68;2.90;;;;;;;17.10;45.80;102013.13;5046384;28;20048;-39
2022/04/11 02:35:12;;;;;;;5.93;3.30;;;;;;;17.09;46.09;102011.44;5042684;28;20049;-40
2022/04/11 02:37:38;;;;;;;5.22;3.65;;;;;;;17.08;46.27;102011.53;5046796;28;20072;-40
2022/04/11 02:40:07;;;;;;;4.63;2.80;;;;;;;17.07;45.74;102012.50;5046589;28;20159;-40
2022/04/11 02:42:35;;;;;;;3.72;2.40;;;;;;;17.04;45.95;102005.56;5046520;28;20045;-40
2022/04/11 02:45:02;;;;;;;5.47;3.00;;;;;;;17.04;45.74;102008.25;5046229;28;20331;-40
2022/04/11 02:47:28;;;;;;;4.00;2.67;;;;;;;17.04;45.76;102002.88;5044695;28;20059;-40
2022/04/11 02:49:55;;;;;;;4.07;2.30;;;;;;;17.02;46.02;101996.81;5044290;28;20040;-40
2022/04/11 02:52:21;;;;;;;4.07;2.50;;;;;;;17.01;45.93;102001.31;5045107;28;20442;-40
2022/04/11 02:54:48;;;;;;;4.35;2.72;;;;;;;17.00;46.26;101998.72;5044605;28;20053;-40
2022/04/11 02:57:14;;;;;;;4.85;2.83;;;;;;;17.01;46.24;101997.78;5045821;28;20417;-40
2022/04/11 02:59:41;;;;;;;4.25;2.45;;;;;;;16.98;45.80;101990.81;5046361;28;20072;-40
2022/04/11 03:02:07;;;;;;;4.93;2.50;;;;;;;16.96;46.00;102000.78;5045010;28;20037;-40
2022/04/11 03:04:34;;;;;;;3.50;2.40;;;;;;;16.96;46.01;101995.44;5046651;28;20140;-40
2022/04/11 03:07:01;;;;;;;3.50;2.30;;;;;;;16.94;46.24;102004.59;5046916;28;20383;-40
2022/04/11 03:09:27;;;;;;;4.18;2.60;;;;;;;16.93;45.81;101998.38;5046066;28;20139;-40
2022/04/11 03:11:54;;;;;;;2.90;2.10;;;;;;;16.92;45.72;101985.09;5045352;28;20036;-40
2022/04/11 03:14:20;;;;;;;3.92;2.30;;;;;;;16.92;46.32;101987.75;5044669;28;20123;-40
2022/04/11 03:16:47;;;;;;;3.97;2.50;;;;;;;16.93;45.68;101984.97;5047569;28;20527;-40
2022/04/11 03:19:14;;;;;;;6.60;3.10;;;;;;;16.98;45.49;101981.94;5044638;28;20158;-40
2022/04/11 03:21:40;;;;;;;3.70;2.15;;;;;;;17.03;46.11;101985.97;5044386;28;20077;-40
2022/04/11 03:24:07;;;;;;;3.47;2.05;;;;;;;17.11;46.08;101982.69;5044407;28;20051;-40
2022/04/11 03:26:34;;;;;;;5.43;3.10;;;;;;;17.19;46.54;101985.63;5046178;28;20043;-40
2022/04/11 03:29:01;;;;;;;4.93;2.50;;;;;;;17.28;46.25;101984.03;5043452;28;20171;-40
2022/04/11 03:31:27;;;;;;;3.28;2.15;;;;;;;17.37;46.47;101986.00;5046346;28;20041;-40
2022/04/11 03:33:54;;;;;;;3.28;2.20;;;;;;;17.46;46.38;101984.44;5045020;28;20072;-40
2022/04/11 03:36:22;;;;;;;6.53;2.00;;;;;;;17.54;46.43;101976.63;5043025;28;20131;-40
2022/04/11 03:38:49;;;;;;;5.38;1.90;;;;;;;17.60;46.08;101972.59;5044658;28;20429;-40
2022/04/11 03:41:15;;;;;;;2.65;1.90;;;;;;;17.67;46.08;101977.34;5045588;28;20124;-40
2022/04/11 03:43:42;;;;;;;6.80;3.00;;;;;;;17.73;46.22;101979.53;5043851;28;20148;-40
2022/04/11 03:46:08;;;;;;;3.58;1.95;;;;;;;17.80;46.19;101976.38;5044405;28;20120;-40
2022/04/11 03:48:35;;;;;;;4.10;2.10;;;;;;;17.85;45.98;101979.53;5044057;28;20163;-40
2022/04/11 03:51:02;;;;;;;3.30;2.28;;;;;;;17.89;46.02;101973.81;5046430;28;20048;-40
2022/04/11 03:53:33;;;;;;;2.90;2.00;;;;;;;17.95;45.98;101984.03;5045232;28;20424;-40
2022/04/11 03:56:00;;;;;;;3.97;2.50;;;;;;;17.99;45.90;101977.44;5045453;28;20068;-40
2022/04/11 03:58:26;;;;;;;5.07;2.60;;;;;;;18.04;45.80;101978.88;5045976;28;20049;-40
2022/04/11 04:00:59;;;;;;;5.55;2.90;;;;;;;18.08;45.99;101973.13;5046572;28;20069;-40
2022/04/11 04:03:27;;;;;;;6.47;3.80;;;;;;;18.10;46.08;101971.19;5045934;28;20041;-40
2022/04/11 04:05:54;;;;;;;9.15;4.65;;;;;;;18.13;45.47;101973.63;5045524;28;20049;-40
2022/04/11 04:08:20;;;;;;;17.10;8.88;;;;;;;18.15;45.45;101973.50;5042166;28;20404;-40
2022/04/11 04:10:47;;;;;;;13.48;7.43;;;;;;;18.15;45.51;101974.34;5045992;28;20053;-40
2022/04/11 04:13:13;;;;;;;11.65;5.68;;;;;;;18.14;45.25;101969.97;5050415;28;20389;-40
2022/04/11 04:15:40;;;;;;;9.70;5.47;;;;;;;18.12;45.18;101969.22;5044436;28;20052;-40
2022/04/11 04:18:07;;;;;;;11.00;5.30;;;;;;;18.11;45.22;101970.22;5043564;28;20047;-40
2022/04/11 04:20:33;;;;;;;10.80;5.68;;;;;;;18.08;45.18;101965.09;5045958;28;20056;-40
2022/04/11 04:23:00;;;;;;;10.07;5.60;;;;;;;18.06;45.20;101963.53;5047440;28;20049;-40
2022/04/11 04:25:28;;;;;;;13.73;6.72;;;;;;;18.03;45.15;101970.00;5048640;28;20046;-40
2022/04/11 04:27:54;;;;;;;10.55;5.65;;;;;;;17.97;44.74;101971.34;5047024;28;20056;-40
2022/04/11 04:30:21;;;;;;;10.50;6.00;;;;;;;17.94;44.93;101965.38;5041644;28;20037;-39
2022/04/11 04:32:48;;;;;;;11.43;6.28;;;;;;;17.90;45.08;101962.09;5047033;28;20067;-40
2022/04/11 04:35:15;;;;;;;11.70;6.72;;;;;;;17.87;44.62;101964.19;5044533;28;20068;-40
2022/04/11 04:37:41;;;;;;;11.30;6.97;;;;;;;17.82;45.43;101950.31;5047992;28;20051;-40
2022/04/11 04:40:09;;;;;;;12.85;7.90;;;;;;;17.78;45.16;101955.06;5046879;28;20676;-40
2022/04/11 04:42:37;;;;;;;13.60;7.72;;;;;;;17.75;45.11;101956.16;5047327;28;20041;-40
2022/04/11 04:45:06;;;;;;;16.73;8.48;;;;;;;17.70;45.16;101944.91;5048978;28;20086;-48
2022/04/11 04:47:33;;;;;;;14.50;8.77;;;;;;;17.67;45.22;101944.31;5051301;28;20040;-40
2022/04/11 04:50:00;;;;;;;16.98;8.60;;;;;;;17.64;45.27;101948.09;5051443;28;20132;-40
2022/04/11 04:52:27;;;;;;;25.33;8.60;;;;;;;17.64;47.44;101949.91;5054594;28;20137;-39
2022/04/11 04:54:53;;;;;;;27.30;8.80;;;;;;;17.66;50.13;101946.16;5052180;28;20122;-40
2022/04/11 04:57:20;;;;;;;31.40;9.00;;;;;;;17.66;51.39;101951.50;5052581;28;20055;-40
2022/04/11 04:59:46;;;;;;;26.33;9.13;;;;;;;17.66;52.62;101951.50;5051075;28;20068;-40
2022/04/11 05:02:13;;;;;;;27.35;8.82;;;;;;;17.66;52.54;101947.97;5049854;28;20123;-40
2022/04/11 05:04:40;;;;;;;27.73;10.02;;;;;;;17.66;52.92;101947.97;5051503;28;20045;-40
2022/04/11 05:07:07;;;;;;;48.95;17.48;;;;;;;17.64;52.87;101941.88;5051914;28;20160;-40
2022/04/11 05:09:33;;;;;;;50.15;18.95;;;;;;;17.64;52.71;101942.72;5047378;28;20055;-40
2022/04/11 05:12:00;;;;;;;43.17;17.67;;;;;;;17.62;52.60;101938.47;5045801;28;20045;-40
2022/04/11 05:14:26;;;;;;;36.90;15.57;;;;;;;17.60;52.49;101949.31;5050375;28;20399;-39
2022/04/11 05:16:53;;;;;;;36.47;15.80;;;;;;;17.58;52.12;101945.06;5045374;28;20401;-40
2022/04/11 05:19:19;;;;;;;41.40;16.73;;;;;;;17.56;51.86;101939.81;5046890;28;20381;-40
2022/04/11 05:21:46;;;;;;;39.95;14.55;;;;;;;17.53;51.81;101942.75;5051321;28;20136;-40
2022/04/11 05:24:14;;;;;;;35.28;14.77;;;;;;;17.51;51.73;101936.66;5052255;28;20320;-39
2022/04/11 05:26:40;;;;;;;37.47;14.18;;;;;;;17.48;51.60;101942.25;5047558;28;20140;-40
2022/04/11 05:29:07;;;;;;;30.85;14.35;;;;;;;17.45;51.52;101935.34;5048573;28;20140;-40
2022/04/11 05:31:33;;;;;;;37.50;15.18;;;;;;;17.43;51.25;101939.09;5047310;28;20112;-40
2022/04/11 05:34:01;;;;;;;33.17;13.77;;;;;;;17.40;51.32;101942.88;5051157;28;20049;-40
2022/04/11 05:36:28;;;;;;;32.92;13.52;;;;;;;17.39;51.42;101937.63;5051973;28;20125;-39
2022/04/11 05:38:54;;;;;;;30.80;13.38;;;;;;;17.36;50.83;101944.09;5052789;28;20120;-40
2022/04/11 05:41:21;;;;;;;31.73;13.07;;;;;;;17.35;50.98;101947.75;5045162;28;20052;-39
2022/04/11 05:43:47;;;;;;;29.10;12.52;;;;;;;17.35;51.41;101954.94;5049688;28;20120;-40
2022/04/11 05:46:14;;;;;;;29.92;13.00;;;;;;;17.32;51.80;101956.03;5051170;28;20041;-39
2022/04/11 05:48:42;;;;;;;25.63;12.55;;;;;;;17.31;51.42;101950.81;5051131;28;20050;-39
2022/04/11 05:51:09;;;;;;;28.23;13.43;;;;;;;17.31;52.00;101958.84;5049899;28;20076;-40
2022/04/11 05:53:35;;;;;;;29.65;13.40;;;;;;;17.28;52.08;101958.09;5048780;28;20120;-40
2022/04/11 05:56:02;;;;;;;30.85;12.30;;;;;;;17.28;52.00;101955.41;5048901;28;20048;-40
2022/04/11 05:58:28;;;;;;;26.67;12.60;;;;;;;17.28;52.12;101958.09;5048667;28;20468;-40
2022/04/11 06:00:55;;;;;;;27.02;12.77;;;;;;;17.27;52.18;101951.03;5050319;28;20041;-39
2022/04/11 06:03:22;;;;;;;25.00;12.57;;;;;;;17.28;52.18;101950.06;5046604;28;20459;-40
2022/04/11 06:05:49;;;;;;;21.88;11.82;;;;;;;17.28;52.05;101946.53;5048251;28;20076;-40
2022/04/11 06:08:16;;;;;;;24.75;11.13;;;;;;;17.26;52.11;101957.38;5052526;28;20124;-40
2022/04/11 06:10:44;;;;;;;24.42;12.13;;;;;;;17.27;52.57;101953.72;5048865;28;20041;-40
2022/04/11 06:13:10;;;;;;;26.33;12.52;;;;;;;17.27;52.35;101960.91;5049567;28;20352;-39
2022/04/11 06:15:37;;;;;;;26.55;11.32;;;;;;;17.28;52.84;101966.13;5045910;28;20119;-40
2022/04/11 06:18:04;;;;;;;20.67;10.45;;;;;;;17.29;52.65;101956.28;5046247;28;20076;-40
2022/04/11 06:20:30;;;;;;;21.52;11.32;;;;;;;17.31;52.69;101961.53;5048247;28;20041;-40
2022/04/11 06:22:58;;;;;;;22.35;11.23;;;;;;;17.31;53.02;101959.69;5051068;28;20069;-38
2022/04/11 06:25:25;;;;;;;18.95;10.40;;;;;;;17.32;52.68;101961.38;5050478;28;20052;-38
2022/04/11 06:27:51;;;;;;;20.42;9.98;;;;;;;17.33;52.48;101962.25;5050217;28;20104;-38
2022/04/11 06:30:18;;;;;;;20.88;10.15;;;;;;;17.33;52.67;101957.75;5048510;28;20559;-38
2022/04/11 06:32:45;;;;;;;18.67;9.85;;;;;;;17.34;52.42;101963.97;5046518;28;20105;-38
2022/04/11 06:35:11;;;;;;;15.70;9.27;;;;;;;17.35;52.35;101957.63;5049368;28;20059;-38
2022/04/11 06:37:38;;;;;;;18.40;10.18;;;;;;;17.36;51.85;101968.19;5050441;28;20757;-39
2022/04/11 06:40:05;;;;;;;18.15;9.57;;;;;;;17.37;52.02;101972.63;5049134;28;20041;-39
2022/04/11 06:42:31;;;;;;;19.38;9.90;;;;;;;17.38;51.90;101968.94;5049935;28;20071;-39
2022/04/11 06:44:58;;;;;;;17.52;8.82;;;;;;;17.41;51.94;101965.19;5046015;28;20045;-39
2022/04/11 06:47:25;;;;;;;18.35;9.48;;;;;;;17.45;51.40;101966.66;5043548;28;20128;-39
2022/04/11 06:49:51;;;;;;;15.55;8.73;;;;;;;17.48;51.58;101964.53;5048144;28;20237;-39
2022/04/11 06:52:18;;;;;;;13.73;8.55;;;;;;;17.53;51.30;101961.53;5049436;28;20048;-39
2022/04/11 06:54:47;;;;;;;19.40;8.73;;;;;;;17.57;50.97;101970.16;5046072;28;20132;-39
2022/04/11 06:57:14;;;;;;;14.38;7.85;;;;;;;17.60;50.84;101965.41;5049426;28;20037;-39
2022/04/11 06:59:40;;;;;;;15.68;7.75;;;;;;;17.63;50.67;101967.84;5027214;28;20045;-39
2022/04/11 07:02:07;;;;;;;13.65;7.63;;;;;;;17.66;51.00;101964.06;5048197;28;20052;-39
2022/04/11 07:04:34;;;;;;;16.67;7.88;;;;;;;17.67;50.34;101960.41;5047276;28;20044;-39
2022/04/11 07:07:00;;;;;;;13.23;6.72;;;;;;;17.68;49.72;101960.25;5048823;28;20124;-39
2022/04/11 07:09:34;;;;;;;13.98;6.78;;;;;;;17.69;49.75;101962.00;5047308;28;20051;-39
2022/04/11 07:12:00;;;;;;;14.98;6.55;;;;;;;17.71;49.63;101954.66;5048233;28;20051;-40
2022/04/11 07:14:27;;;;;;;12.57;6.70;;;;;;;17.73;49.49;101958.09;5046394;28;20063;-40
2022/04/11 07:16:54;;;;;;;14.63;7.30;;;;;;;17.74;49.75;101956.25;5048469;28;20144;-40
2022/04/11 07:19:21;;;;;;;12.35;6.50;;;;;;;17.74;49.36;101951.78;5048154;28;20045;-40
2022/04/11 07:21:48;;;;;;;10.45;6.63;;;;;;;17.75;49.58;101942.75;5047216;28;20080;-40
2022/04/11 07:24:14;;;;;;;9.95;6.32;;;;;;;17.78;49.59;101940.81;5048059;28;20041;-39
2022/04/11 07:26:41;;;;;;;9.88;6.32;;;;;;;17.78;48.99;101940.81;5047833;28;20052;-40
2022/04/11 07:29:08;;;;;;;10.27;6.22;;;;;;;17.78;48.97;101938.97;5049099;28;20099;-40
2022/04/11 07:31:35;;;;;;;10.40;6.22;;;;;;;17.77;48.13;101939.97;5045517;28;20045;-40
2022/04/11 07:34:02;;;;;;;9.15;6.28;;;;;;;17.77;48.37;101931.91;5050478;28;20052;-40
2022/04/11 07:36:29;;;;;;;9.60;5.53;;;;;;;17.79;48.54;101935.31;5050669;28;20072;-40
2022/04/11 07:38:56;;;;;;;10.82;5.65;;;;;;;17.80;48.43;101936.16;5047853;28;20037;-40
2022/04/11 07:41:23;;;;;;;9.02;5.53;;;;;;;17.82;48.73;101934.22;5047637;28;20457;-40
2022/04/11 07:43:51;;;;;;;10.02;5.85;;;;;;;17.82;48.55;101931.53;5048049;28;20053;-40
2022/04/11 07:46:17;;;;;;;10.25;5.57;;;;;;;17.83;49.11;101928.72;5048463;28;20051;-40
2022/04/11 07:48:44;;;;;;;9.25;5.45;;;;;;;17.84;49.17;101924.19;5048243;28;20063;-40
2022/04/11 07:51:11;;;;;;;10.18;4.93;;;;;;;17.86;49.32;101924.94;5046972;28;20128;-40
2022/04/11 07:53:37;;;;;;;8.18;5.35;;;;;;;17.86;48.76;101933.81;5048736;28;20053;-40
2022/04/11 07:56:04;;;;;;;9.05;5.03;;;;;;;17.87;49.12;101919.44;5049915;28;20041;-38
2022/04/11 07:58:30;;;;;;;11.07;5.30;;;;;;;17.88;48.66;101918.44;5049559;28;20137;-40
2022/04/11 08:00:57;;;;;;;8.60;4.60;;;;;;;17.90;48.93;101918.34;5048516;28;20120;-39
2022/04/11 08:03:23;;;;;;;9.15;4.88;;;;;;;17.89;48.87;101920.16;5049196;28;20036;-39
2022/04/11 08:05:50;;;;;;;7.22;4.95;;;;;;;17.91;49.29;101912.84;5049931;28;20120;-39
2022/04/11 08:08:17;;;;;;;8.43;4.57;;;;;;;17.91;48.34;101912.00;5048588;28;20284;-39
2022/04/11 08:10:43;;;;;;;8.35;4.63;;;;;;;17.93;48.72;101910.91;5047797;28;20365;-39
2022/04/11 08:13:10;;;;;;;6.55;4.30;;;;;;;17.93;48.31;101907.34;5048987;28;20526;-40
2022/04/11 08:15:37;;;;;;;7.90;4.60;;;;;;;17.94;48.96;101904.53;5048667;28;20124;-39
2022/04/11 08:18:04;;;;;;;8.88;4.95;;;;;;;17.96;48.89;101904.41;5048474;28;20084;-40
2022/04/11 08:20:30;;;;;;;8.10;4.93;;;;;;;17.96;48.63;101902.56;5047751;28;20069;-39
2022/04/11 08:22:57;;;;;;;7.50;4.15;;;;;;;17.97;48.99;101895.41;5047693;28;20124;-39
2022/04/11 08:25:24;;;;;;;8.68;4.68;;;;;;;17.98;48.78;101900.63;5047364;28;20051;-39
2022/04/11 08:27:50;;;;;;;7.13;4.22;;;;;;;17.99;48.69;101893.44;5049755;28;20080;-39
2022/04/11 08:30:17;;;;;;;5.65;3.95;;;;;;;18.00;48.59;101884.41;5049720;28;20045;-38
2022/04/11 08:32:48;;;;;;;7.75;3.90;;;;;;;18.00;48.79;101895.97;5048587;28;20890;-39
2022/04/11 08:35:15;;;;;;;8.07;4.18;;;;;;;18.02;48.50;101895.00;5033971;28;20563;-39
2022/04/11 08:37:42;;;;;;;7.13;4.07;;;;;;;18.02;48.62;101887.81;5046741;28;20076;-39
2022/04/11 08:40:14;;;;;;;6.25;3.95;;;;;;;18.04;48.33;101885.84;5049901;28;20044;-38
2022/04/11 08:42:42;;;;;;;8.70;3.90;;;;;;;18.05;48.14;101886.69;5050644;28;20040;-39
2022/04/11 08:45:13;;;;;;;9.05;4.18;;;;;;;18.05;48.52;101884.88;5050761;28;20671;-38
2022/04/11 08:47:41;;;;;;;7.10;3.67;;;;;;;18.07;47.92;101884.75;5047304;28;20071;-38
2022/04/11 08:50:08;;;;;;;4.80;3.40;;;;;;;18.08;47.86;101886.44;5050225;28;20168;-38
2022/04/11 08:52:36;;;;;;;5.43;3.28;;;;;;;18.10;47.82;101879.13;5050362;28;20432;-38
2022/04/11 08:55:03;;;;;;;5.13;2.97;;;;;;;18.12;48.12;101886.03;5048228;28;20124;-38
2022/04/11 08:57:31;;;;;;;6.55;3.63;;;;;;;18.14;47.93;101885.94;5051005;28;20336;-38
2022/04/11 09:00:02;;;;;;;8.10;4.18;;;;;;;18.15;47.90;101891.16;5050079;28;20340;-39
2022/04/11 09:02:34;;;;;;;11.52;3.58;;;;;;;18.16;47.71;101890.19;5049460;28;20116;-39
2022/04/11 09:05:01;;;;;;;6.07;3.25;;;;;;;18.18;47.97;101890.91;5048176;28;20047;-39
2022/04/11 09:07:27;;;;;;;6.32;3.33;;;;;;;18.20;47.34;101893.47;5048437;28;20143;-38
2022/04/11 09:09:59;;;;;;;6.35;3.17;;;;;;;18.21;47.25;101887.97;5045526;28;20037;-38
2022/04/11 09:12:26;;;;;;;6.00;3.20;;;;;;;18.23;47.26;101886.00;5047857;28;20072;-38
2022/04/11 09:14:56;;;;;;;4.75;2.80;;;;;;;18.25;47.25;101883.19;5047840;28;20080;-39
2022/04/11 09:17:23;;;;;;;7.20;3.00;;;;;;;18.28;47.13;101879.41;5045724;28;20489;-38
2022/04/11 09:20:10;;;;;;;5.90;3.30;;;;;;;18.29;46.88;101881.97;5048197;28;20121;-39
2022/04/11 09:22:42;;;;;;;5.88;3.20;;;;;;;18.33;47.02;101866.44;5047544;28;20416;-38
2022/04/11 09:25:11;;;;;;;7.47;2.80;;;;;;;18.35;47.21;101868.00;5049065;28;20638;-38
2022/04/11 09:27:38;;;;;;;4.30;2.80;;;;;;;18.38;46.40;101866.91;5052655;28;20132;-38
2022/04/11 09:30:21;;;;;;;5.10;2.78;;;;;;;18.39;46.50;101864.06;5049760;28;20172;-38
2022/04/11 09:32:53;;;;;;;3.38;2.53;;;;;;;18.44;46.39;101869.06;5054171;28;20037;-38
2022/04/11 09:35:20;;;;;;;6.22;2.88;;;;;;;18.47;46.56;101858.91;5054102;28;20418;-38
2022/04/11 09:37:48;;;;;;;4.38;2.80;;;;;;;18.49;46.42;101856.97;5053860;28;20052;-39
2022/04/11 09:40:21;;;;;;;5.72;2.53;;;;;;;18.53;46.47;101865.56;5049816;28;20587;-39
2022/04/11 09:42:57;;;;;;;4.78;2.90;;;;;;;18.57;46.59;101861.63;5048967;28;20045;-39
2022/04/11 09:45:24;;;;;;;3.58;2.58;;;;;;;18.62;46.58;101863.94;5049780;28;20454;-39
2022/04/11 09:48:03;;;;;;;6.38;2.75;;;;;;;18.66;46.49;101860.00;5052517;28;20103;-39
2022/04/11 09:50:31;;;;;;;3.78;2.20;;;;;;;18.69;46.37;101860.59;5051836;28;20045;-39
2022/04/11 09:53:10;;;;;;;3.90;2.20;;;;;;;18.72;46.19;101854.13;5050447;28;20041;-39
2022/04/11 09:55:37;;;;;;;4.95;2.08;;;;;;;18.76;45.93;101852.03;5049926;28;20140;-39
2022/04/11 09:58:05;;;;;;;5.32;2.55;;;;;;;18.79;46.16;101843.72;5053701;28;20132;-39
2022/04/11 10:00:37;;;;;;;4.60;2.45;;;;;;;18.82;45.85;101840.75;5050792;28;20047;-39
2022/04/11 10:03:05;;;;;;;4.10;2.28;;;;;;;18.85;45.52;101844.00;5049389;28;20036;-39
2022/04/11 10:05:36;;;;;;;4.90;2.13;;;;;;;18.88;45.83;101845.59;5051027;28;20060;-39
2022/04/11 10:08:04;;;;;;;4.03;2.70;;;;;;;18.91;45.61;101845.31;5051585;28;20052;-39
2022/04/11 10:10:38;;;;;;;3.28;2.25;;;;;;;18.94;45.47;101847.75;5051252;28;20072;-39
2022/04/11 10:13:13;;;;;;;4.55;2.30;;;;;;;18.97;45.55;101839.38;5053179;28;20127;-39
2022/04/11 10:15:43;;;;;;;5.80;2.58;;;;;;;19.00;44.83;101841.81;5047538;28;20082;-39
2022/04/11 10:18:13;;;;;;;3.75;2.50;;;;;;;19.03;44.88;101846.91;5052260;28;20072;-39
2022/04/11 10:20:46;;;;;;;4.22;2.53;;;;;;;19.05;44.89;101831.50;5049279;28;20416;-39
2022/04/11 10:23:40;;;;;;;5.55;2.70;;;;;;;19.09;44.82;101824.88;5046210;28;20037;-39
2022/04/11 10:26:15;;;;;;;6.60;2.47;;;;;;;19.10;44.95;101829.28;5048048;28;20135;-39
2022/04/11 10:28:46;;;;;;;3.78;2.70;;;;;;;19.13;44.94;101830.81;5047615;28;20051;-39
2022/04/11 10:31:14;;;;;;;4.22;2.47;;;;;;;19.15;44.85;101823.47;5047903;28;20486;-39
2022/04/11 10:33:55;;;;;;;4.85;2.58;;;;;;;19.17;44.78;101832.25;5046370;28;20041;-39
2022/04/11 10:36:38;;;;;;;4.32;2.83;;;;;;;19.18;44.62;101829.44;5048290;28;20044;-39
2022/04/11 10:39:17;;;;;;;6.38;2.80;;;;;;;19.21;44.13;101829.13;5046063;28;20323;-39
2022/04/11 10:41:56;;;;;;;4.82;2.60;;;;;;;19.24;44.67;101833.41;5048730;28;20570;-39
2022/04/11 10:44:35;;;;;;;4.88;2.75;;;;;;;19.26;44.14;101822.50;5047510;28;20102;-39
2022/04/11 10:47:07;;;;;;;5.75;2.60;;;;;;;19.28;43.81;101826.75;5045047;28;20048;-39
2022/04/11 10:49:53;;;;;;;3.10;2.00;;;;;;;19.30;43.75;101814.06;5042622;28;20055;-39
2022/04/11 10:52:41;;;;;;;3.97;2.25;;;;;;;19.31;44.33;101807.69;5043786;28;20040;-39
2022/04/11 10:55:11;;;;;;;4.82;2.25;;;;;;;19.35;43.67;101802.88;5051220;28;20145;-39
2022/04/11 10:57:44;;;;;;;6.13;2.50;;;;;;;19.35;44.23;101797.50;5046627;28;20131;-39
2022/04/11 11:00:11;;;;;;;;;;;;;;;19.36;44.23;101805.41;5050343;28;20132;-39
2022/04/11 11:02:53;;;;;;;3.08;2.20;;;;;;;19.39;43.98;101788.16;5047576;28;19920;-39
2022/04/11 11:05:38;;;;;;;4.18;2.20;;;;;;;19.39;43.80;101793.53;5045292;28;20130;-39
2022/04/11 11:08:10;;;;;;;5.20;2.42;;;;;;;19.40;43.42;101789.88;5045333;28;20041;-39
2022/04/11 11:10:57;;;;;;;3.20;1.92;;;;;;;19.40;43.44;101785.34;5048301;28;20044;-39
2022/04/11 11:13:41;;;;;;;3.97;2.05;;;;;;;19.41;43.48;101773.56;5048493;28;20041;-39
2022/04/11 11:16:08;;;;;;;5.40;2.15;;;;;;;19.41;43.13;101765.50;5043637;28;20460;-39
2022/04/11 11:18:47;;;;;;;5.18;2.65;;;;;;;19.43;43.36;101774.31;5049295;28;20056;-39
2022/04/11 11:21:15;;;;;;;3.65;2.10;;;;;;;19.45;43.36;101766.09;5049270;28;20036;-40
2022/04/11 11:24:04;;;;;;;6.43;2.00;;;;;;;19.46;43.25;101760.59;5050345;28;20049;-40
2022/04/11 11:26:45;;;;;;;3.58;2.25;;;;;;;19.46;43.20;101752.53;5029898;28;20229;-40